createdAt,value
2022-11-08T00:00:00.892Z,987.87
2022-11-08T00:01:00.826Z,987.79
2022-11-08T00:02:00.933Z,987.85
2022-11-08T00:03:00.903Z,987.88
2022-11-08T00:04:00.797Z,987.84
2022-11-08T00:05:00.785Z,987.85
2022-11-08T00:06:00.797Z,987.82
2022-11-08T00:07:00.760Z,987.86
2022-11-08T00:08:00.770Z,987.86
2022-11-08T00:09:00.804Z,987.85
2022-11-08T00:10:00.727Z,987.94
2022-11-08T00:11:00.716Z,987.83
2022-11-08T00:12:00.717Z,987.91
2022-11-08T00:13:00.719Z,987.94
2022-11-08T00:14:00.732Z,987.90
2022-11-08T00:15:00.721Z,987.86
2022-11-08T00:16:00.664Z,987.92
2022-11-08T00:17:00.662Z,987.80
2022-11-08T00:18:00.663Z,987.86
2022-11-08T00:19:00.647Z,987.82
2022-11-08T00:20:00.629Z,987.87
2022-11-08T00:21:00.655Z,987.86
2022-11-08T00:22:00.608Z,987.87
2022-11-08T00:23:00.626Z,987.86
2022-11-08T00:24:00.629Z,987.94
2022-11-08T00:25:00.582Z,987.87
2022-11-08T00:26:00.619Z,987.89
2022-11-08T00:27:00.561Z,987.93
2022-11-08T00:28:00.575Z,987.93
2022-11-08T00:29:00.545Z,988.03
2022-11-08T00:30:00.540Z,987.99
2022-11-08T00:31:00.522Z,987.95
2022-11-08T00:32:00.505Z,987.96
2022-11-08T00:33:00.519Z,987.98
2022-11-08T00:34:00.494Z,987.98
2022-11-08T00:35:00.483Z,987.95
2022-11-08T00:36:00.480Z,987.97
2022-11-08T00:37:00.487Z,987.97
2022-11-08T00:38:00.521Z,987.99
2022-11-08T00:39:00.444Z,988.03
2022-11-08T00:40:00.472Z,988.01
2022-11-08T00:41:00.424Z,988.06
2022-11-08T00:42:00.439Z,987.98
2022-11-08T00:43:00.407Z,988.03
2022-11-08T00:44:00.393Z,988.00
2022-11-08T00:45:00.408Z,987.99
2022-11-08T00:46:00.399Z,987.97
2022-11-08T00:47:00.366Z,988.03
2022-11-08T00:48:00.364Z,987.95
2022-11-08T00:49:00.348Z,987.97
2022-11-08T00:50:00.340Z,988.01
2022-11-08T00:51:00.361Z,987.99
2022-11-08T00:52:00.321Z,987.97
2022-11-08T00:53:00.303Z,987.97
2022-11-08T00:54:00.301Z,987.99
2022-11-08T00:55:00.351Z,987.96
2022-11-08T00:56:00.293Z,987.95
2022-11-08T00:57:00.281Z,987.93
2022-11-08T00:58:00.780Z,987.93
2022-11-08T00:59:00.259Z,987.97
2022-11-08T01:00:00.271Z,987.89
2022-11-08T01:01:00.327Z,987.91
2022-11-08T01:02:00.453Z,987.91
2022-11-08T01:03:00.253Z,987.85
2022-11-08T01:04:00.188Z,987.83
2022-11-08T01:05:01.196Z,987.82
2022-11-08T01:06:00.183Z,987.82
2022-11-08T01:07:00.211Z,987.81
2022-11-08T01:08:00.181Z,987.79
2022-11-08T01:09:00.140Z,987.77
2022-11-08T01:10:00.150Z,987.74
2022-11-08T01:11:00.139Z,987.78
2022-11-08T01:12:00.120Z,987.77
2022-11-08T01:13:00.119Z,987.80
2022-11-08T01:14:00.120Z,987.76
2022-11-08T01:15:00.212Z,987.79
2022-11-08T01:16:00.071Z,987.76
2022-11-08T01:17:00.104Z,987.82
2022-11-08T01:18:00.056Z,987.78
2022-11-08T01:19:00.053Z,987.83
2022-11-08T01:20:00.063Z,987.76
2022-11-08T01:21:00.032Z,987.77
2022-11-08T01:22:00.042Z,987.76
2022-11-08T01:23:00.018Z,987.74
2022-11-08T01:24:00.003Z,987.73
2022-11-08T01:25:00.006Z,987.71
2022-11-08T01:26:00.008Z,987.74
2022-11-08T01:26:59.989Z,987.72
2022-11-08T01:27:59.970Z,987.74
2022-11-08T01:28:59.963Z,987.78
2022-11-08T01:29:59.940Z,987.75
2022-11-08T01:30:59.940Z,987.82
2022-11-08T01:31:59.928Z,987.77
2022-11-08T01:32:59.916Z,987.76
2022-11-08T01:33:59.922Z,987.75
2022-11-08T01:34:59.961Z,987.72
2022-11-08T01:35:59.901Z,987.73
2022-11-08T01:36:59.882Z,987.65
2022-11-08T01:37:59.873Z,987.67
2022-11-08T01:38:59.864Z,987.70
2022-11-08T01:39:59.860Z,987.66
2022-11-08T01:40:59.859Z,987.62
2022-11-08T01:41:59.838Z,987.63
2022-11-08T01:42:59.823Z,987.65
2022-11-08T01:43:59.806Z,987.68
2022-11-08T01:44:59.801Z,987.62
2022-11-08T01:45:59.787Z,987.66
2022-11-08T01:46:59.803Z,987.60
2022-11-08T01:47:59.755Z,987.60
2022-11-08T01:48:59.757Z,987.56
2022-11-08T01:49:59.753Z,987.60
2022-11-08T01:50:59.758Z,987.56
2022-11-08T01:51:59.751Z,987.57
2022-11-08T01:52:59.721Z,987.53
2022-11-08T01:53:59.712Z,987.56
2022-11-08T01:54:59.711Z,987.51
2022-11-08T01:55:59.695Z,987.50
2022-11-08T01:56:59.746Z,987.48
2022-11-08T01:57:59.669Z,987.47
2022-11-08T01:58:59.670Z,987.46
2022-11-08T01:59:59.718Z,987.45
2022-11-08T02:00:59.687Z,987.46
2022-11-08T02:01:59.801Z,987.43
2022-11-08T02:02:59.630Z,987.45
2022-11-08T02:03:59.652Z,987.39
2022-11-08T02:04:59.621Z,987.36
2022-11-08T02:05:59.595Z,987.41
2022-11-08T02:06:59.591Z,987.33
2022-11-08T02:07:59.577Z,987.38
2022-11-08T02:08:59.648Z,987.37
2022-11-08T02:09:59.554Z,987.33
2022-11-08T02:10:59.555Z,987.36
2022-11-08T02:11:59.629Z,987.34
2022-11-08T02:13:03.749Z,987.34
2022-11-08T02:14:01.560Z,987.34
2022-11-08T02:14:59.523Z,987.42
2022-11-08T02:15:59.573Z,987.37
2022-11-08T02:16:59.576Z,987.33
2022-11-08T02:17:59.485Z,987.40
2022-11-08T02:18:59.485Z,987.37
2022-11-08T02:19:59.471Z,987.33
2022-11-08T02:20:59.454Z,987.35
2022-11-08T02:21:59.468Z,987.35
2022-11-08T02:22:59.439Z,987.30
2022-11-08T02:23:59.437Z,987.31
2022-11-08T02:24:59.429Z,987.29
2022-11-08T02:25:59.401Z,987.27
2022-11-08T02:26:59.392Z,987.31
2022-11-08T02:27:59.419Z,987.31
2022-11-08T02:28:59.396Z,987.31
2022-11-08T02:29:59.413Z,987.33
2022-11-08T02:30:59.358Z,987.29
2022-11-08T02:31:59.340Z,987.30
2022-11-08T02:32:59.379Z,987.28
2022-11-08T02:33:59.322Z,987.30
2022-11-08T02:34:59.309Z,987.34
2022-11-08T02:35:59.315Z,987.32
2022-11-08T02:36:59.346Z,987.30
2022-11-08T02:39:31.188Z,987.32
2022-11-08T02:39:59.273Z,987.37
2022-11-08T02:40:59.267Z,987.39
2022-11-08T02:41:59.258Z,987.31
2022-11-08T02:42:59.231Z,987.39
2022-11-08T02:43:59.224Z,987.40
2022-11-08T02:44:59.273Z,987.34
2022-11-08T02:45:59.245Z,987.32
2022-11-08T02:46:59.229Z,987.37
2022-11-08T02:47:59.195Z,987.37
2022-11-08T02:48:59.176Z,987.37
2022-11-08T02:49:59.166Z,987.35
2022-11-08T02:50:59.189Z,987.37
2022-11-08T02:51:59.161Z,987.42
2022-11-08T02:53:00.130Z,987.34
2022-11-08T02:53:59.175Z,987.32
2022-11-08T02:54:59.152Z,987.33
2022-11-08T02:55:59.163Z,987.34
2022-11-08T02:56:59.110Z,987.35
2022-11-08T02:57:59.095Z,987.32
2022-11-08T02:58:59.078Z,987.31
2022-11-08T02:59:59.069Z,987.32
2022-11-08T03:00:59.114Z,987.31
2022-11-08T03:01:59.181Z,987.42
2022-11-08T03:02:59.055Z,987.34
2022-11-08T03:03:59.044Z,987.37
2022-11-08T03:04:59.038Z,987.27
2022-11-08T03:05:59.041Z,987.34
2022-11-08T03:07:00.013Z,987.32
2022-11-08T03:07:59.037Z,987.30
2022-11-08T03:08:58.987Z,987.30
2022-11-08T03:09:58.975Z,987.28
2022-11-08T03:10:58.978Z,987.26
2022-11-08T03:11:58.942Z,987.36
2022-11-08T03:12:58.975Z,987.27
2022-11-08T03:13:58.946Z,987.34
2022-11-08T03:14:58.915Z,987.28
2022-11-08T03:15:58.941Z,987.31
2022-11-08T03:16:58.971Z,987.31
2022-11-08T03:17:58.902Z,987.32
2022-11-08T03:18:58.886Z,987.31
2022-11-08T03:19:58.909Z,987.36
2022-11-08T03:20:58.894Z,987.31
2022-11-08T03:21:58.865Z,987.27
2022-11-08T03:22:58.845Z,987.26
2022-11-08T03:23:58.869Z,987.28
2022-11-08T03:24:58.834Z,987.22
2022-11-08T03:25:58.828Z,987.21
2022-11-08T03:26:58.927Z,987.24
2022-11-08T03:27:58.803Z,987.24
2022-11-08T03:28:58.799Z,987.27
2022-11-08T03:29:58.786Z,987.31
2022-11-08T03:30:58.783Z,987.29
2022-11-08T03:31:58.790Z,987.27
2022-11-08T03:32:58.803Z,987.28
2022-11-08T03:33:58.743Z,987.30
2022-11-08T03:34:58.744Z,987.28
2022-11-08T03:35:58.722Z,987.25
2022-11-08T03:36:58.713Z,987.27
2022-11-08T03:37:58.724Z,987.27
2022-11-08T03:38:58.706Z,987.26
2022-11-08T03:39:58.820Z,987.22
2022-11-08T03:40:58.744Z,987.24
2022-11-08T03:41:58.670Z,987.15
2022-11-08T03:42:58.676Z,987.20
2022-11-08T03:43:58.650Z,987.18
2022-11-08T03:44:58.630Z,987.18
2022-11-08T03:45:58.629Z,987.23
2022-11-08T03:46:58.625Z,987.21
2022-11-08T03:47:58.626Z,987.19
2022-11-08T03:48:58.967Z,987.16
2022-11-08T03:49:58.729Z,987.23
2022-11-08T03:50:58.580Z,987.19
2022-11-08T03:51:58.573Z,987.17
2022-11-08T03:52:58.562Z,987.15
2022-11-08T03:53:58.600Z,987.19
2022-11-08T03:54:58.552Z,987.17
2022-11-08T03:55:58.582Z,987.18
2022-11-08T03:56:58.533Z,987.17
2022-11-08T03:57:58.540Z,987.14
2022-11-08T03:58:58.497Z,987.12
2022-11-08T03:59:58.497Z,987.13
2022-11-08T04:00:58.591Z,987.10
2022-11-08T04:01:58.567Z,987.07
2022-11-08T04:02:58.467Z,987.11
2022-11-08T04:03:58.439Z,987.11
2022-11-08T04:04:58.455Z,987.08
2022-11-08T04:05:58.453Z,987.06
2022-11-08T04:06:58.416Z,987.05
2022-11-08T04:07:58.407Z,987.00
2022-11-08T04:08:58.400Z,987.06
2022-11-08T04:09:58.412Z,987.05
2022-11-08T04:10:58.404Z,987.00
2022-11-08T04:11:58.373Z,986.97
2022-11-08T04:12:58.385Z,986.95
2022-11-08T04:13:58.354Z,986.96
2022-11-08T04:14:58.343Z,986.97
2022-11-08T04:15:58.383Z,986.92
2022-11-08T04:16:58.327Z,986.97
2022-11-08T04:17:58.352Z,986.95
2022-11-08T04:18:58.300Z,986.96
2022-11-08T04:19:58.293Z,987.00
2022-11-08T04:20:58.388Z,986.93
2022-11-08T04:21:58.281Z,986.93
2022-11-08T04:22:58.264Z,987.00
2022-11-08T04:23:58.280Z,986.99
2022-11-08T04:24:58.235Z,987.03
2022-11-08T04:25:58.228Z,987.00
2022-11-08T04:26:58.225Z,987.01
2022-11-08T04:27:58.228Z,986.96
2022-11-08T04:28:58.238Z,986.98
2022-11-08T04:29:58.207Z,986.99
2022-11-08T04:30:58.205Z,987.00
2022-11-08T04:31:58.182Z,986.93
2022-11-08T04:32:58.183Z,986.88
2022-11-08T04:33:58.199Z,986.90
2022-11-08T04:34:58.173Z,986.93
2022-11-08T04:35:58.142Z,986.92
2022-11-08T04:36:58.150Z,986.92
2022-11-08T04:37:58.117Z,986.95
2022-11-08T04:38:58.113Z,986.89
2022-11-08T04:39:58.108Z,986.87
2022-11-08T04:40:58.092Z,986.84
2022-11-08T04:42:02.186Z,986.81
2022-11-08T04:42:59.056Z,986.78
2022-11-08T04:43:58.051Z,986.76
2022-11-08T04:44:58.050Z,986.74
2022-11-08T04:45:58.082Z,986.71
2022-11-08T04:46:58.032Z,986.68
2022-11-08T04:47:58.034Z,986.71
2022-11-08T04:48:58.014Z,986.68
2022-11-08T04:49:57.988Z,986.69
2022-11-08T04:50:57.995Z,986.66
2022-11-08T04:51:57.982Z,986.67
2022-11-08T04:52:58.080Z,986.64
2022-11-08T04:53:57.967Z,986.69
2022-11-08T04:54:57.966Z,986.60
2022-11-08T04:55:57.958Z,986.58
2022-11-08T04:56:57.929Z,986.54
2022-11-08T04:57:57.958Z,986.60
2022-11-08T04:58:57.909Z,986.56
2022-11-08T04:59:57.914Z,986.52
2022-11-08T05:00:57.918Z,986.57
2022-11-08T05:01:58.009Z,986.57
2022-11-08T05:02:57.882Z,986.50
2022-11-08T05:03:57.875Z,986.52
2022-11-08T05:04:57.845Z,986.52
2022-11-08T05:05:57.852Z,986.45
2022-11-08T05:06:57.850Z,986.48
2022-11-08T05:07:57.817Z,986.49
2022-11-08T05:08:57.810Z,986.45
2022-11-08T05:10:02.096Z,986.48
2022-11-08T05:10:58.780Z,986.47
2022-11-08T05:11:57.844Z,986.47
2022-11-08T05:12:57.778Z,986.46
2022-11-08T05:13:57.753Z,986.43
2022-11-08T05:14:57.746Z,986.39
2022-11-08T05:15:57.738Z,986.45
2022-11-08T05:16:57.779Z,986.46
2022-11-08T05:17:57.719Z,986.41
2022-11-08T05:18:57.706Z,986.41
2022-11-08T05:19:57.701Z,986.43
2022-11-08T05:20:57.737Z,986.43
2022-11-08T05:21:57.683Z,986.38
2022-11-08T05:22:57.683Z,986.32
2022-11-08T05:23:57.698Z,986.35
2022-11-08T05:24:57.660Z,986.33
2022-11-08T05:25:57.770Z,986.32
2022-11-08T05:26:57.629Z,986.37
2022-11-08T05:27:57.637Z,986.35
2022-11-08T05:28:57.620Z,986.35
2022-11-08T05:29:57.586Z,986.36
2022-11-08T05:30:57.596Z,986.36
2022-11-08T05:31:57.636Z,986.30
2022-11-08T05:32:57.590Z,986.35
2022-11-08T05:33:57.593Z,986.42
2022-11-08T05:34:57.561Z,986.38
2022-11-08T05:36:00.074Z,986.39
2022-11-08T05:36:57.525Z,986.40
2022-11-08T05:37:57.524Z,986.41
2022-11-08T05:38:57.532Z,986.43
2022-11-08T05:39:57.505Z,986.38
2022-11-08T05:40:57.513Z,986.38
2022-11-08T05:41:57.485Z,986.41
2022-11-08T05:42:57.499Z,986.43
2022-11-08T05:43:57.471Z,986.42
2022-11-08T05:44:57.498Z,986.47
2022-11-08T05:45:57.451Z,986.44
2022-11-08T05:46:57.433Z,986.50
2022-11-08T05:47:57.430Z,986.44
2022-11-08T05:48:57.409Z,986.45
2022-11-08T05:49:57.429Z,986.42
2022-11-08T05:50:57.397Z,986.43
2022-11-08T05:51:57.383Z,986.44
2022-11-08T05:52:57.378Z,986.45
2022-11-08T05:53:57.394Z,986.45
2022-11-08T05:54:57.368Z,986.42
2022-11-08T05:55:57.348Z,986.40
2022-11-08T05:56:57.340Z,986.41
2022-11-08T05:57:57.354Z,986.47
2022-11-08T05:58:57.340Z,986.36
2022-11-08T05:59:57.335Z,986.39
2022-11-08T06:00:57.299Z,986.39
2022-11-08T06:01:57.398Z,986.34
2022-11-08T06:02:57.357Z,986.37
2022-11-08T06:03:57.270Z,986.34
2022-11-08T06:04:57.312Z,986.30
2022-11-08T06:05:57.255Z,986.37
2022-11-08T06:06:57.259Z,986.34
2022-11-08T06:07:57.236Z,986.29
2022-11-08T06:08:57.223Z,986.25
2022-11-08T06:09:57.191Z,986.32
2022-11-08T06:10:57.213Z,986.32
2022-11-08T06:11:57.239Z,986.32
2022-11-08T06:12:57.175Z,986.25
2022-11-08T06:13:57.175Z,986.28
2022-11-08T06:14:57.166Z,986.30
2022-11-08T06:15:57.159Z,986.24
2022-11-08T06:16:57.154Z,986.24
2022-11-08T06:17:57.135Z,986.28
2022-11-08T06:18:57.122Z,986.26
2022-11-08T06:19:57.116Z,986.24
2022-11-08T06:20:57.103Z,986.29
2022-11-08T06:21:57.096Z,986.32
2022-11-08T06:22:57.108Z,986.30
2022-11-08T06:23:57.104Z,986.30
2022-11-08T06:24:57.120Z,986.30
2022-11-08T06:25:58.050Z,986.34
2022-11-08T06:26:57.044Z,986.27
2022-11-08T06:27:57.042Z,986.26
2022-11-08T06:28:57.034Z,986.25
2022-11-08T06:29:57.026Z,986.25
2022-11-08T06:30:57.046Z,986.31
2022-11-08T06:31:57.008Z,986.30
2022-11-08T06:32:57.017Z,986.25
2022-11-08T06:33:57.057Z,986.23
2022-11-08T06:34:56.965Z,986.25
2022-11-08T06:35:56.962Z,986.26
2022-11-08T06:36:56.983Z,986.21
2022-11-08T06:38:00.708Z,986.27
2022-11-08T06:38:58.926Z,986.28
2022-11-08T06:39:57.017Z,986.19
2022-11-08T06:40:56.927Z,986.21
2022-11-08T06:41:56.940Z,986.22
2022-11-08T06:42:56.888Z,986.18
2022-11-08T06:43:56.869Z,986.18
2022-11-08T06:44:56.865Z,986.13
2022-11-08T06:45:56.910Z,986.17
2022-11-08T06:46:56.886Z,986.09
2022-11-08T06:47:56.844Z,986.14
2022-11-08T06:48:56.827Z,986.06
2022-11-08T06:49:57.807Z,986.17
2022-11-08T06:50:56.809Z,986.13
2022-11-08T06:51:56.910Z,986.15
2022-11-08T06:52:56.807Z,986.06
2022-11-08T06:53:56.858Z,986.11
2022-11-08T06:54:56.763Z,986.04
2022-11-08T06:55:57.789Z,986.04
2022-11-08T06:56:56.745Z,986.06
2022-11-08T06:57:56.750Z,986.01
2022-11-08T06:58:56.749Z,986.05
2022-11-08T06:59:56.762Z,985.98
2022-11-08T07:00:56.707Z,986.01
2022-11-08T07:01:56.827Z,986.06
2022-11-08T07:02:56.887Z,986.02
2022-11-08T07:03:56.672Z,986.06
2022-11-08T07:04:56.690Z,986.04
2022-11-08T07:05:56.656Z,986.06
2022-11-08T07:06:56.657Z,986.02
2022-11-08T07:07:56.681Z,985.97
2022-11-08T07:08:56.629Z,986.00
2022-11-08T07:10:00.866Z,985.99
2022-11-08T07:10:57.636Z,986.02
2022-11-08T07:11:56.608Z,985.99
2022-11-08T07:12:56.595Z,986.01
2022-11-08T07:13:56.599Z,986.00
2022-11-08T07:14:56.570Z,986.05
2022-11-08T07:15:56.557Z,986.03
2022-11-08T07:16:56.563Z,986.01
2022-11-08T07:17:56.598Z,986.06
2022-11-08T07:18:56.551Z,986.01
2022-11-08T07:19:56.526Z,986.06
2022-11-08T07:20:56.508Z,985.92
2022-11-08T07:21:56.508Z,986.04
2022-11-08T07:22:56.492Z,986.01
2022-11-08T07:23:56.508Z,986.03
2022-11-08T07:24:56.476Z,986.05
2022-11-08T07:25:56.473Z,986.00
2022-11-08T07:26:56.463Z,985.96
2022-11-08T07:27:56.451Z,985.94
2022-11-08T07:28:56.484Z,985.95
2022-11-08T07:29:56.447Z,985.98
2022-11-08T07:30:56.424Z,985.96
2022-11-08T07:31:56.424Z,985.95
2022-11-08T07:32:56.399Z,985.97
2022-11-08T07:33:56.397Z,986.03
2022-11-08T07:34:56.374Z,986.02
2022-11-08T07:35:56.381Z,986.00
2022-11-08T07:36:56.370Z,985.99
2022-11-08T07:37:56.344Z,986.00
2022-11-08T07:38:56.335Z,985.93
2022-11-08T07:39:56.355Z,985.91
2022-11-08T07:40:56.335Z,985.93
2022-11-08T07:41:56.334Z,985.94
2022-11-08T07:43:11.407Z,985.93
2022-11-08T07:43:58.306Z,985.88
2022-11-08T07:44:56.271Z,985.87
2022-11-08T07:45:56.279Z,985.95
2022-11-08T07:46:56.280Z,985.92
2022-11-08T07:47:56.296Z,985.95
2022-11-08T07:48:56.253Z,985.89
2022-11-08T07:49:56.286Z,985.88
2022-11-08T07:50:56.243Z,985.89
2022-11-08T07:51:56.202Z,985.86
2022-11-08T07:52:56.200Z,985.83
2022-11-08T07:54:00.320Z,985.80
2022-11-08T07:54:58.244Z,985.70
2022-11-08T07:55:56.173Z,985.69
2022-11-08T07:56:56.179Z,985.70
2022-11-08T07:57:56.192Z,985.66
2022-11-08T07:58:56.132Z,985.63
2022-11-08T07:59:56.158Z,985.68
2022-11-08T08:00:56.153Z,985.65
2022-11-08T08:01:56.188Z,985.60
2022-11-08T08:02:56.174Z,985.63
2022-11-08T08:03:56.117Z,985.59
2022-11-08T08:04:56.084Z,985.66
2022-11-08T08:06:00.720Z,985.56
2022-11-08T08:06:57.062Z,985.56
2022-11-08T08:07:56.056Z,985.54
2022-11-08T08:08:56.052Z,985.51
2022-11-08T08:09:56.032Z,985.53
2022-11-08T08:10:56.229Z,985.52
2022-11-08T08:11:56.008Z,985.50
2022-11-08T08:12:56.004Z,985.60
2022-11-08T08:13:56.022Z,985.64
2022-11-08T08:14:55.985Z,985.66
2022-11-08T08:15:55.995Z,985.75
2022-11-08T08:16:55.969Z,985.76
2022-11-08T08:17:55.966Z,985.78
2022-11-08T08:18:56.781Z,985.69
2022-11-08T08:19:56.932Z,985.74
2022-11-08T08:20:55.967Z,985.75
2022-11-08T08:21:55.929Z,985.75
2022-11-08T08:22:55.898Z,985.71
2022-11-08T08:23:55.983Z,985.74
2022-11-08T08:24:59.305Z,985.72
2022-11-08T08:25:55.868Z,985.76
2022-11-08T08:26:56.894Z,985.72
2022-11-08T08:27:55.876Z,985.72
2022-11-08T08:28:55.895Z,985.70
2022-11-08T08:29:55.925Z,985.71
2022-11-08T08:30:55.865Z,985.65
2022-11-08T08:31:55.833Z,985.67
2022-11-08T08:33:22.029Z,985.77
2022-11-08T08:33:57.827Z,985.73
2022-11-08T08:34:55.804Z,985.73
2022-11-08T08:35:55.798Z,985.71
2022-11-08T08:36:55.778Z,985.71
2022-11-08T08:37:55.794Z,985.70
2022-11-08T08:39:27.651Z,985.74
2022-11-08T08:39:55.766Z,985.77
2022-11-08T08:40:55.742Z,985.70
2022-11-08T08:41:55.763Z,985.74
2022-11-08T08:42:55.706Z,985.74
2022-11-08T08:43:55.817Z,985.80
2022-11-08T08:44:55.697Z,985.77
2022-11-08T08:45:55.681Z,985.80
2022-11-08T08:46:55.714Z,985.77
2022-11-08T08:47:55.739Z,985.83
2022-11-08T08:48:55.682Z,985.86
2022-11-08T08:49:55.646Z,985.74
2022-11-08T08:50:55.626Z,985.80
2022-11-08T08:51:55.627Z,985.86
2022-11-08T08:52:55.632Z,985.82
2022-11-08T08:53:55.616Z,985.86
2022-11-08T08:54:55.603Z,985.90
2022-11-08T08:55:55.570Z,985.83
2022-11-08T08:56:55.590Z,985.84
2022-11-08T08:57:55.614Z,985.83
2022-11-08T09:01:55.534Z,985.85
2022-11-08T09:02:55.498Z,985.88
2022-11-08T09:03:55.540Z,985.80
2022-11-08T09:04:55.492Z,985.80
2022-11-08T09:05:55.509Z,985.81
2022-11-08T09:06:55.512Z,985.86
2022-11-08T09:07:55.472Z,985.82
2022-11-08T09:08:55.493Z,985.80
2022-11-08T09:09:55.445Z,985.80
2022-11-08T09:10:55.439Z,985.86
2022-11-08T09:11:55.428Z,985.85
2022-11-08T09:12:55.408Z,985.84
2022-11-08T09:13:55.406Z,985.76
2022-11-08T09:14:55.389Z,985.77
2022-11-08T09:15:55.442Z,985.75
2022-11-08T09:16:55.432Z,985.72
2022-11-08T09:17:55.389Z,985.70
2022-11-08T09:18:55.414Z,985.77
2022-11-08T09:19:57.317Z,985.71
2022-11-08T09:20:56.350Z,985.72
2022-11-08T09:21:55.469Z,985.72
2022-11-08T09:22:55.318Z,985.74
2022-11-08T09:23:55.303Z,985.72
2022-11-08T09:24:55.373Z,985.72
2022-11-08T09:25:55.301Z,985.79
2022-11-08T09:26:55.276Z,985.71
2022-11-08T09:27:55.272Z,985.68
2022-11-08T09:28:55.282Z,985.74
2022-11-08T09:29:55.260Z,985.80
2022-11-08T09:30:55.262Z,985.77
2022-11-08T09:31:55.225Z,985.78
2022-11-08T09:33:02.916Z,985.71
2022-11-08T09:33:57.257Z,985.76
2022-11-08T09:34:55.227Z,985.77
2022-11-08T09:35:55.194Z,985.78
2022-11-08T09:36:55.221Z,985.72
2022-11-08T09:37:55.177Z,985.71
2022-11-08T09:38:55.147Z,985.71
2022-11-08T09:39:56.224Z,985.75
2022-11-08T09:40:55.142Z,985.74
2022-11-08T09:41:55.838Z,985.74
2022-11-08T09:42:55.122Z,985.71
2022-11-08T09:43:55.129Z,985.70
2022-11-08T09:44:55.145Z,985.62
2022-11-08T09:45:56.104Z,985.68
2022-11-08T09:46:55.097Z,985.70
2022-11-08T09:47:55.134Z,985.69
2022-11-08T09:48:55.063Z,985.65
2022-11-08T09:49:55.053Z,985.71
2022-11-08T09:50:55.034Z,985.74
2022-11-08T09:51:55.065Z,985.70
2022-11-08T09:52:55.025Z,985.71
2022-11-08T09:53:55.024Z,985.75
2022-11-08T09:54:55.007Z,985.67
2022-11-08T09:55:55.051Z,985.67
2022-11-08T09:56:55.003Z,985.68
2022-11-08T09:57:54.974Z,985.67
2022-11-08T09:58:54.965Z,985.60
2022-11-08T09:59:54.952Z,985.63
2022-11-08T10:00:54.945Z,985.59
2022-11-08T10:01:55.066Z,985.49
2022-11-08T10:02:54.946Z,985.52
2022-11-08T10:03:54.922Z,985.57
2022-11-08T10:04:54.916Z,985.49
2022-11-08T10:05:54.952Z,985.43
2022-11-08T10:06:59.408Z,985.45
2022-11-08T10:07:56.887Z,985.45
2022-11-08T10:08:54.981Z,985.43
2022-11-08T10:09:54.879Z,985.41
2022-11-08T10:10:54.866Z,985.44
2022-11-08T10:11:54.836Z,985.37
2022-11-08T10:12:54.817Z,985.38
2022-11-08T10:13:54.850Z,985.35
2022-11-08T10:14:54.926Z,985.30
2022-11-08T10:15:54.836Z,985.33
2022-11-08T10:16:54.793Z,985.38
2022-11-08T10:17:54.778Z,985.32
2022-11-08T10:18:54.792Z,985.26
2022-11-08T10:19:54.765Z,985.31
2022-11-08T10:20:54.777Z,985.33
2022-11-08T10:21:54.740Z,985.32
2022-11-08T10:22:54.735Z,985.23
2022-11-08T10:23:54.727Z,985.22
2022-11-08T10:24:54.709Z,985.20
2022-11-08T10:25:54.800Z,985.16
2022-11-08T10:26:54.693Z,985.28
2022-11-08T10:27:54.681Z,985.23
2022-11-08T10:28:54.683Z,985.21
2022-11-08T10:29:54.657Z,985.17
2022-11-08T10:30:54.659Z,985.18
2022-11-08T10:31:54.666Z,985.11
2022-11-08T10:32:54.630Z,985.10
2022-11-08T10:33:54.647Z,985.12
2022-11-08T10:34:54.601Z,985.19
2022-11-08T10:36:00.613Z,985.16
2022-11-08T10:36:55.614Z,985.19
2022-11-08T10:37:54.638Z,985.16
2022-11-08T10:38:54.622Z,985.10
2022-11-08T10:39:54.583Z,985.10
2022-11-08T10:40:54.571Z,985.08
2022-11-08T10:41:54.566Z,985.05
2022-11-08T10:42:54.604Z,985.06
2022-11-08T10:43:54.524Z,985.05
2022-11-08T10:44:54.527Z,985.09
2022-11-08T10:45:54.572Z,985.10
2022-11-08T10:46:54.502Z,985.12
2022-11-08T10:47:54.489Z,984.97
2022-11-08T10:48:54.497Z,984.97
2022-11-08T10:49:57.220Z,984.97
2022-11-08T10:50:54.459Z,984.89
2022-11-08T10:51:54.455Z,984.96
2022-11-08T10:52:54.471Z,985.02
2022-11-08T10:53:54.484Z,984.96
2022-11-08T10:54:54.440Z,984.87
2022-11-08T10:55:54.449Z,984.87
2022-11-08T10:56:54.446Z,984.90
2022-11-08T10:57:54.422Z,984.87
2022-11-08T10:58:54.384Z,984.82
2022-11-08T10:59:54.396Z,984.85
2022-11-08T11:00:54.377Z,984.82
2022-11-08T11:01:54.384Z,984.84
2022-11-08T11:02:54.381Z,984.77
2022-11-08T11:03:54.343Z,984.77
2022-11-08T11:04:54.322Z,984.72
2022-11-08T11:05:54.317Z,984.63
2022-11-08T11:06:54.351Z,984.70
2022-11-08T11:07:59.037Z,984.80
2022-11-08T11:08:56.291Z,984.74
2022-11-08T11:09:54.280Z,984.71
2022-11-08T11:10:54.286Z,984.76
2022-11-08T11:11:54.263Z,984.77
2022-11-08T11:12:54.246Z,984.71
2022-11-08T11:13:54.312Z,984.75
2022-11-08T11:14:54.231Z,984.75
2022-11-08T11:15:54.215Z,984.80
2022-11-08T11:16:54.199Z,984.75
2022-11-08T11:17:54.261Z,984.73
2022-11-08T11:18:54.178Z,984.81
2022-11-08T11:19:54.182Z,984.71
2022-11-08T11:20:54.179Z,984.72
2022-11-08T11:21:54.170Z,984.72
2022-11-08T11:22:54.139Z,984.72
2022-11-08T11:23:54.149Z,984.73
2022-11-08T11:24:54.155Z,984.78
2022-11-08T11:25:54.133Z,984.74
2022-11-08T11:26:54.092Z,984.73
2022-11-08T11:27:54.100Z,984.70
2022-11-08T11:28:54.087Z,984.68
2022-11-08T11:29:54.090Z,984.68
2022-11-08T11:30:54.145Z,984.65
2022-11-08T11:31:54.077Z,984.67
2022-11-08T11:32:54.127Z,984.69
2022-11-08T11:33:54.035Z,984.68
2022-11-08T11:34:54.025Z,984.72
2022-11-08T11:35:55.058Z,984.69
2022-11-08T11:36:54.047Z,984.71
2022-11-08T11:37:54.005Z,984.73
2022-11-08T11:38:54.000Z,984.64
2022-11-08T11:39:53.983Z,984.61
2022-11-08T11:40:54.062Z,984.68
2022-11-08T11:41:53.972Z,984.65
2022-11-08T11:42:53.961Z,984.65
2022-11-08T11:43:53.956Z,984.58
2022-11-08T11:44:53.932Z,984.57
2022-11-08T11:45:53.927Z,984.60
2022-11-08T11:46:53.945Z,984.56
2022-11-08T11:47:53.905Z,984.63
2022-11-08T11:48:53.930Z,984.56
2022-11-08T11:49:53.890Z,984.62
2022-11-08T11:50:53.933Z,984.59
2022-11-08T11:51:53.869Z,984.59
2022-11-08T11:52:53.849Z,984.62
2022-11-08T11:53:53.857Z,984.58
2022-11-08T11:54:54.845Z,984.57
2022-11-08T11:55:53.819Z,984.56
2022-11-08T11:56:53.810Z,984.57
2022-11-08T11:57:53.824Z,984.60
2022-11-08T11:58:53.819Z,984.62
2022-11-08T11:59:53.790Z,984.49
2022-11-08T12:00:53.776Z,984.47
2022-11-08T12:01:53.855Z,984.51
2022-11-08T12:02:53.762Z,984.52
2022-11-08T12:03:53.759Z,984.51
2022-11-08T12:04:53.735Z,984.46
2022-11-08T12:05:54.727Z,984.47
2022-11-08T12:06:53.786Z,984.48
2022-11-08T12:07:53.746Z,984.53
2022-11-08T12:08:53.709Z,984.46
2022-11-08T12:09:53.699Z,984.51
2022-11-08T12:10:53.693Z,984.47
2022-11-08T12:11:53.680Z,984.48
2022-11-08T12:12:53.707Z,984.47
2022-11-08T12:13:54.644Z,984.49
2022-11-08T12:14:54.644Z,984.45
2022-11-08T12:15:53.629Z,984.39
2022-11-08T12:16:53.619Z,984.37
2022-11-08T12:17:53.625Z,984.37
2022-11-08T12:18:53.628Z,984.37
2022-11-08T12:19:53.603Z,984.36
2022-11-08T12:20:53.589Z,984.34
2022-11-08T12:21:53.578Z,984.41
2022-11-08T12:22:53.558Z,984.39
2022-11-08T12:23:53.569Z,984.39
2022-11-08T12:24:53.554Z,984.34
2022-11-08T12:25:53.524Z,984.34
2022-11-08T12:26:53.515Z,984.34
2022-11-08T12:27:53.509Z,984.29
2022-11-08T12:28:53.508Z,984.24
2022-11-08T12:29:53.491Z,984.24
2022-11-08T12:30:53.487Z,984.29
2022-11-08T12:31:53.476Z,984.23